Terminal Aerodrome Forecast
Issued by NWS

Home | Current Version | Previous Version | Text Only | Print | Product List | Glossary On
Versions: 1 2 3 4 5 6 7 8 9 10 11 12 13 14 15 16 17 18 19 20 21
798
FTUS41 KCAR 270530
TAFHUL
TAF
KHUL 270530Z 2706/2806 12006KT P6SM OVC019
     FM271100 13008KT 6SM -SHRA OVC015
     FM271400 14009KT P6SM OVC010
     FM272100 17008KT P6SM BKN090
     FM280300 19006KT P6SM BKN005=

USA.gov is the U.S. government's official web portal to all federal, state and local government web resources and services.